Time;durP1;ratioP1;P1;durP2;ratioP2;P2;SDS_P1;SDS_P2;PMS_P1;PMS_P2;Temp;Humidity;BMP_temperature;BMP_pressure;BME280_temperature;BME280_humidity;BME280_pressure;Samples;Min_cycle;Max_cycle;Signal;HPM_P1;HPM_P2
2021/06/10 00:00:07;;;;;;;3.97;3.67;;;;;;;18.64;50.60;100574.78;125265;1092;103051;-80
2021/06/10 00:02:34;;;;;;;3.10;2.80;;;;;;;18.58;50.93;100569.77;124276;1092;114546;-80
2021/06/10 00:05:07;;;;;;;3.98;3.55;;;;;;;18.62;50.79;100571.32;124950;1093;103183;-78
2021/06/10 00:07:35;;;;;;;5.78;3.68;;;;;;;18.64;50.82;100573.92;124841;1092;103004;-79
2021/06/10 00:10:10;;;;;;;6.33;4.35;;;;;;;18.62;50.95;100571.32;127807;1091;114980;-78
2021/06/10 00:12:38;;;;;;;4.73;4.23;;;;;;;18.61;51.04;100566.88;127102;1093;102924;-77
2021/06/10 00:15:13;;;;;;;4.48;3.38;;;;;;;18.59;51.03;100570.63;125611;1091;114745;-78
2021/06/10 00:17:41;;;;;;;5.53;3.17;;;;;;;18.55;50.91;100573.50;125093;1092;103709;-79
2021/06/10 00:20:11;;;;;;;4.90;3.67;;;;;;;18.57;50.88;100577.91;125168;1093;103729;-79
2021/06/10 00:22:41;;;;;;;3.60;3.30;;;;;;;18.59;50.96;100567.92;127696;1092;115361;-78
2021/06/10 00:25:10;;;;;;;3.63;3.13;;;;;;;18.61;50.86;100571.41;127690;1093;102860;-78
2021/06/10 00:27:38;;;;;;;3.63;3.18;;;;;;;18.59;50.65;100566.08;125036;1093;114512;-77
2021/06/10 00:30:09;;;;;;;5.15;3.70;;;;;;;18.63;50.51;100569.48;125213;1092;103492;-78
2021/06/10 00:32:37;;;;;;;5.15;3.65;;;;;;;18.64;50.60;100579.33;124993;1093;115619;-80
2021/06/10 00:35:05;;;;;;;5.00;3.63;;;;;;;18.63;50.73;100570.34;124833;1092;103074;-78
2021/06/10 00:37:33;;;;;;;4.37;3.23;;;;;;;18.62;50.68;100574.02;125247;1092;103080;-80
2021/06/10 00:40:01;;;;;;;5.00;4.30;;;;;;;18.66;50.98;100578.28;124704;1093;116419;-78
2021/06/10 00:42:32;;;;;;;4.85;3.53;;;;;;;18.67;50.69;100568.34;126880;1092;103080;-78
2021/06/10 00:44:59;;;;;;;3.55;3.25;;;;;;;18.67;50.75;100568.34;127833;1093;116757;-78
2021/06/10 00:47:27;;;;;;;9.00;4.10;;;;;;;18.66;50.84;100570.19;127934;1093;100875;-81
2021/06/10 00:49:54;;;;;;;6.30;3.58;;;;;;;18.66;50.85;100567.48;125324;1091;103132;-81
2021/06/10 00:52:22;;;;;;;3.73;3.13;;;;;;;18.66;50.99;100574.69;127756;1093;115478;-78
2021/06/10 00:54:50;;;;;;;7.23;3.90;;;;;;;18.62;50.99;100573.13;126735;1093;103073;-79
2021/06/10 00:57:17;;;;;;;4.20;3.40;;;;;;;18.59;51.00;100568.78;125113;1093;115907;-78
2021/06/10 00:59:44;;;;;;;5.75;3.95;;;;;;;18.61;51.13;100564.18;125152;1093;103140;-79
2021/06/10 01:02:12;;;;;;;4.45;3.50;;;;;;;18.62;51.07;100565.03;125082;1093;103172;-79
2021/06/10 01:04:39;;;;;;;3.75;3.23;;;;;;;18.58;51.12;100569.77;124676;1093;114456;-79
2021/06/10 01:07:24;;;;;;;6.43;4.10;;;;;;;18.55;51.31;100568.11;124634;1091;103009;-78
2021/06/10 01:09:57;;;;;;;8.45;4.40;;;;;;;18.55;51.18;100572.61;125056;1093;113949;-78
2021/06/10 01:13:05;;;;;;;4.90;3.28;;;;;;;18.52;51.23;100562.86;125156;1092;103036;-79
2021/06/10 01:15:37;;;;;;;5.80;3.50;;;;;;;18.51;51.17;100569.24;127577;1093;114674;-79
2021/06/10 01:18:05;;;;;;;3.50;3.20;;;;;;;18.46;51.38;100568.63;127921;1091;100999;-78
2021/06/10 01:20:33;;;;;;;10.83;4.40;;;;;;;18.47;51.48;100573.08;127829;1093;116202;-78
2021/06/10 01:23:20;;;;;;;3.65;3.35;;;;;;;18.40;51.73;100573.50;126386;1093;103007;-77
2021/06/10 01:26:20;;;;;;;5.50;3.47;;;;;;;18.38;51.93;100573.59;124475;1092;102998;-80
2021/06/10 01:28:49;;;;;;;6.37;4.83;;;;;;;18.38;51.86;100574.45;124403;1092;115817;-79
2021/06/10 01:31:18;;;;;;;3.53;3.10;;;;;;;18.29;51.96;100574.11;124795;1093;103065;-78
2021/06/10 01:33:52;;;;;;;3.88;3.48;;;;;;;18.21;52.19;100579.92;125489;1093;115590;-80
2021/06/10 01:36:27;;;;;;;4.27;3.10;;;;;;;18.15;52.14;100583.83;125024;1092;103000;-79
2021/06/10 01:38:58;;;;;;;4.20;3.80;;;;;;;18.09;52.35;100569.79;127827;1093;114980;-79
2021/06/10 01:41:26;;;;;;;4.75;4.30;;;;;;;18.04;52.61;100575.45;127970;1093;100834;-79
2021/06/10 01:43:56;;;;;;;5.13;4.07;;;;;;;18.02;52.87;100580.04;125565;1092;103043;-78
2021/06/10 01:46:27;;;;;;;5.00;4.17;;;;;;;17.97;52.75;100579.45;125181;1092;115796;-78
2021/06/10 01:49:11;;;;;;;8.93;4.10;;;;;;;17.87;53.01;100577.22;125868;1092;102983;-78
2021/06/10 01:51:40;;;;;;;5.23;3.77;;;;;;;17.82;53.24;100581.09;125028;1092;115663;-80
2021/06/10 01:54:08;;;;;;;6.00;3.90;;;;;;;17.76;53.41;100579.60;125124;1093;103018;-77
2021/06/10 01:56:36;;;;;;;5.90;4.30;;;;;;;17.70;53.61;100575.42;124933;1093;114978;-77
2021/06/10 01:59:04;;;;;;;4.77;3.93;;;;;;;17.64;53.84;100574.88;125071;1093;103020;-77
2021/06/10 02:01:33;;;;;;;3.83;3.30;;;;;;;17.54;54.26;100569.98;125180;1093;103496;-78
2021/06/10 02:04:02;;;;;;;5.20;3.90;;;;;;;17.46;54.28;100571.31;124431;1092;115770;-77
2021/06/10 02:06:32;;;;;;;7.57;4.00;;;;;;;17.42;54.31;100569.73;124756;1092;103076;-79
2021/06/10 02:09:03;;;;;;;4.00;3.58;;;;;;;17.31;54.78;100573.00;125850;1092;114860;-77
2021/06/10 02:11:33;;;;;;;3.90;3.43;;;;;;;17.28;55.04;100575.85;125047;1092;103034;-77
2021/06/10 02:14:19;;;;;;;7.53;4.63;;;;;;;17.27;54.81;100579.48;125109;1091;102903;-78
2021/06/10 02:17:01;;;;;;;5.07;4.13;;;;;;;17.23;54.74;100570.69;124960;1092;115548;-79
2021/06/10 02:19:29;;;;;;;6.35;3.75;;;;;;;17.21;54.97;100569.91;125036;1092;103241;-80
2021/06/10 02:21:56;;;;;;;5.90;4.00;;;;;;;17.20;54.74;100565.48;125118;1093;115540;-79
2021/06/10 02:24:24;;;;;;;5.20;4.00;;;;;;;17.18;54.58;100565.56;125098;1093;103429;-78
2021/06/10 02:26:51;;;;;;;5.00;3.97;;;;;;;17.19;54.63;100561.03;124916;1093;115864;-80
2021/06/10 02:29:19;;;;;;;5.27;4.47;;;;;;;17.16;54.63;100572.83;125158;1093;103029;-79
2021/06/10 02:31:48;;;;;;;8.03;4.70;;;;;;;17.10;54.69;100570.47;125170;1093;103059;-81
2021/06/10 02:34:19;;;;;;;3.93;3.57;;;;;;;17.07;54.94;100573.30;124852;1093;115882;-79
2021/06/10 02:36:47;;;;;;;5.33;4.47;;;;;;;17.04;55.07;100576.16;125231;1093;103101;-79
2021/06/10 02:39:16;;;;;;;5.83;3.70;;;;;;;17.00;55.14;100571.88;124955;1091;115813;-79
2021/06/10 02:41:52;;;;;;;11.25;4.98;;;;;;;16.96;55.29;100575.67;125090;1093;103307;-79
2021/06/10 02:44:20;;;;;;;5.03;4.20;;;;;;;16.90;55.25;100562.52;125136;1093;103076;-80
2021/06/10 02:46:47;;;;;;;10.40;5.10;;;;;;;16.95;55.67;100580.16;124839;1092;114940;-81
2021/06/10 02:49:16;;;;;;;4.23;3.83;;;;;;;16.94;55.22;100581.13;125077;1093;103120;-78
2021/06/10 02:51:44;;;;;;;10.70;4.67;;;;;;;16.91;55.89;100575.89;125070;1092;115598;-79
2021/06/10 02:54:16;;;;;;;6.18;4.85;;;;;;;16.83;55.68;100572.68;125206;1092;103005;-77
2021/06/10 02:56:45;;;;;;;4.20;3.80;;;;;;;16.83;55.65;100576.27;124946;1092;116032;-79
2021/06/10 02:59:14;;;;;;;5.17;4.43;;;;;;;16.83;55.77;100573.57;124735;1093;103060;-80
2021/06/10 03:01:44;;;;;;;5.87;4.70;;;;;;;16.76;55.97;100579.33;124772;1091;102918;-79
2021/06/10 03:04:15;;;;;;;6.63;4.53;;;;;;;16.69;56.22;100590.38;127486;1093;115742;-79
2021/06/10 03:06:44;;;;;;;5.57;5.03;;;;;;;16.69;56.29;100584.13;124794;1093;103342;-78
2021/06/10 03:09:13;;;;;;;8.53;5.10;;;;;;;16.74;56.04;100587.47;125250;1093;115929;-79
2021/06/10 03:11:42;;;;;;;5.60;4.20;;;;;;;16.76;56.09;100595.46;125121;1093;103169;-79
2021/06/10 03:14:11;;;;;;;6.48;4.78;;;;;;;16.76;56.16;100590.08;125359;1092;103011;-80
2021/06/10 03:16:40;;;;;;;5.75;4.75;;;;;;;16.74;56.04;100591.95;125088;1092;115805;-79
2021/06/10 03:19:08;;;;;;;5.75;4.95;;;;;;;16.69;56.40;100592.20;125439;1093;103036;-80
2021/06/10 03:21:37;;;;;;;9.98;5.03;;;;;;;16.64;56.40;100595.09;125047;1093;115705;-81
2021/06/10 03:24:05;;;;;;;10.53;5.50;;;;;;;16.58;56.81;100595.41;125078;1092;102983;-79
2021/06/10 03:26:35;;;;;;;6.45;4.85;;;;;;;16.54;56.84;100601.86;125138;1092;103138;-80
2021/06/10 03:29:05;;;;;;;5.67;5.03;;;;;;;16.57;57.05;100596.35;124808;1092;115611;-81
2021/06/10 03:31:34;;;;;;;5.70;5.03;;;;;;;16.58;57.09;100589.14;125496;1093;102900;-78
2021/06/10 03:34:02;;;;;;;6.28;5.08;;;;;;;16.59;57.53;100593.58;125196;1093;115446;-80
2021/06/10 03:36:30;;;;;;;6.38;5.75;;;;;;;16.55;57.32;100599.12;124894;1093;103044;-80
2021/06/10 03:38:58;;;;;;;5.73;5.08;;;;;;;16.57;57.29;100601.73;124970;1093;116600;-79
2021/06/10 03:41:48;;;;;;;7.27;6.53;;;;;;;16.56;57.94;100597.29;124933;1092;103124;-79
2021/06/10 03:44:17;;;;;;;5.17;4.50;;;;;;;16.52;58.04;100604.63;124499;1095;103137;-79
2021/06/10 03:46:45;;;;;;;7.60;6.47;;;;;;;16.56;58.03;100605.36;125275;1096;115787;-78
2021/06/10 03:49:14;;;;;;;6.57;5.40;;;;;;;16.58;57.94;100605.28;124853;1093;103036;-78
2021/06/10 03:51:41;;;;;;;6.33;5.60;;;;;;;16.57;58.58;100608.91;125048;1092;115739;-81
2021/06/10 03:54:23;;;;;;;8.75;5.45;;;;;;;16.57;58.40;100608.91;125027;1093;103163;-79
2021/06/10 03:56:50;;;;;;;7.00;5.97;;;;;;;16.60;58.50;100612.33;124968;1093;116140;-78
2021/06/10 03:59:18;;;;;;;6.28;5.68;;;;;;;16.55;58.42;100617.05;125083;1093;103074;-79
2021/06/10 04:01:45;;;;;;;8.20;6.40;;;;;;;16.59;58.72;100609.72;124995;1093;103632;-78
2021/06/10 04:04:14;;;;;;;7.50;6.80;;;;;;;16.61;58.58;100616.77;124970;1093;115631;-80
2021/06/10 04:06:42;;;;;;;6.58;5.93;;;;;;;16.63;58.63;100624.75;125471;1092;103572;-78
2021/06/10 04:09:09;;;;;;;10.73;6.20;;;;;;;16.64;58.84;100626.50;126144;1092;115775;-79
2021/06/10 04:11:38;;;;;;;6.77;6.03;;;;;;;16.64;58.87;100611.23;124803;1093;103450;-78
2021/06/10 04:14:05;;;;;;;8.08;6.45;;;;;;;16.58;58.96;100608.86;125069;1092;102856;-77
2021/06/10 04:16:33;;;;;;;11.27;6.60;;;;;;;16.61;59.20;100618.59;124882;1093;115626;-77
2021/06/10 04:19:01;;;;;;;11.20;6.20;;;;;;;16.63;59.40;100605.94;125151;1093;102906;-80
2021/06/10 04:21:28;;;;;;;9.27;6.77;;;;;;;16.70;59.20;100604.67;125012;1092;116575;-80
2021/06/10 04:24:09;;;;;;;7.60;6.23;;;;;;;16.72;59.24;100608.17;124823;1093;103163;-81
2021/06/10 04:26:37;;;;;;;8.80;6.20;;;;;;;16.80;59.63;100605.12;124867;1091;103431;-79
2021/06/10 04:29:05;;;;;;;7.07;6.17;;;;;;;16.83;59.77;100611.23;124798;1093;115494;-80
2021/06/10 04:31:33;;;;;;;8.43;6.57;;;;;;;16.83;59.57;100602.27;124998;1093;103671;-78
2021/06/10 04:34:00;;;;;;;8.65;6.78;;;;;;;16.88;59.61;100603.77;124980;1093;116509;-79
2021/06/10 04:36:27;;;;;;;12.93;7.30;;;;;;;16.91;59.82;100607.31;124947;1093;102994;-80
2021/06/10 04:38:54;;;;;;;7.88;6.03;;;;;;;16.93;59.99;100608.09;124933;1092;114280;-79
2021/06/10 04:41:21;;;;;;;9.97;8.43;;;;;;;16.98;59.74;100615.01;125097;1093;103121;-80
2021/06/10 04:43:49;;;;;;;8.40;6.10;;;;;;;17.00;59.88;100606.85;125098;1093;103129;-78
2021/06/10 04:46:17;;;;;;;8.30;6.57;;;;;;;16.99;60.25;100614.06;124945;1092;114493;-80
2021/06/10 04:48:44;;;;;;;10.75;6.35;;;;;;;17.06;60.27;100609.25;125019;1093;103020;-78
2021/06/10 04:51:11;;;;;;;13.60;6.90;;;;;;;17.12;60.33;100613.44;124802;1092;116167;-78
2021/06/10 04:53:42;;;;;;;6.77;6.00;;;;;;;17.16;60.24;100609.64;125944;1092;103007;-80
2021/06/10 04:56:10;;;;;;;12.00;6.73;;;;;;;17.19;60.05;100622.94;124912;1092;103021;-79
2021/06/10 04:58:37;;;;;;;7.87;5.93;;;;;;;17.20;60.13;100624.69;124902;1093;114654;-77
2021/06/10 05:01:05;;;;;;;9.10;6.60;;;;;;;17.18;60.19;100621.19;125031;1093;103101;-79
2021/06/10 05:03:34;;;;;;;7.98;5.88;;;;;;;17.18;60.12;100624.77;124758;1092;116333;-78
2021/06/10 05:06:02;;;;;;;8.28;5.28;;;;;;;17.26;60.49;100621.70;124673;1092;102988;-79
2021/06/10 05:08:29;;;;;;;9.90;6.93;;;;;;;17.33;60.17;100624.95;124784;1092;102997;-81
2021/06/10 05:10:57;;;;;;;7.77;5.93;;;;;;;17.41;60.15;100633.50;124435;1093;114344;-79
2021/06/10 05:13:24;;;;;;;7.30;5.97;;;;;;;17.46;60.27;100636.83;124323;1093;103917;-80
2021/06/10 05:15:52;;;;;;;8.80;6.90;;;;;;;17.48;60.25;100624.14;124791;1093;115680;-78
2021/06/10 05:18:20;;;;;;;9.63;6.90;;;;;;;17.56;59.98;100626.45;125137;1093;103510;-78
2021/06/10 05:20:48;;;;;;;7.70;6.40;;;;;;;17.66;59.87;100624.13;125074;1091;115890;-81
2021/06/10 05:23:16;;;;;;;7.70;6.50;;;;;;;17.68;59.88;100622.24;127890;1092;101099;-76
2021/06/10 05:25:44;;;;;;;8.57;6.20;;;;;;;17.70;59.75;100620.32;126973;1093;102983;-78
2021/06/10 05:28:33;;;;;;;8.47;7.07;;;;;;;17.79;59.52;100614.45;124765;1097;115543;-79
2021/06/10 05:31:05;;;;;;;9.55;6.68;;;;;;;17.85;59.40;100615.97;124794;1096;103111;-79
2021/06/10 05:33:37;;;;;;;9.33;7.33;;;;;;;17.86;59.45;100613.19;125013;1094;115353;-78
2021/06/10 05:36:05;;;;;;;9.53;6.28;;;;;;;17.91;59.58;100612.06;124682;1096;103061;-79
2021/06/10 05:38:33;;;;;;;10.17;6.20;;;;;;;18.01;59.49;100608.83;124884;1096;103004;-79
2021/06/10 05:41:01;;;;;;;6.83;5.63;;;;;;;18.11;59.19;100611.02;124655;1096;117660;-78
2021/06/10 05:43:29;;;;;;;6.00;5.40;;;;;;;18.21;59.10;100609.58;124944;1094;103348;-80
2021/06/10 05:45:58;;;;;;;6.68;6.00;;;;;;;18.25;58.93;100605.75;127166;1094;114059;-79
2021/06/10 05:48:25;;;;;;;7.63;6.20;;;;;;;18.35;58.99;100612.38;124716;1096;103169;-79
2021/06/10 05:50:52;;;;;;;6.93;5.90;;;;;;;18.44;58.53;100607.42;124554;1096;116102;-78
2021/06/10 05:53:20;;;;;;;6.30;5.70;;;;;;;18.47;58.53;100608.13;124670;1096;103284;-77
2021/06/10 05:55:48;;;;;;;8.73;7.00;;;;;;;18.59;58.20;100608.38;124675;1095;103237;-77
2021/06/10 05:58:15;;;;;;;6.55;5.85;;;;;;;18.64;58.20;100609.86;124732;1096;116227;-77
2021/06/10 06:00:42;;;;;;;6.67;5.83;;;;;;;18.70;58.32;100605.96;124843;1095;103170;-79
2021/06/10 06:03:12;;;;;;;5.70;5.20;;;;;;;18.75;58.06;100602.98;124748;1096;115859;-81
2021/06/10 06:05:39;;;;;;;17.30;5.50;;;;;;;18.80;58.08;100612.55;124814;1093;103652;-79
2021/06/10 06:08:07;;;;;;;10.48;6.05;;;;;;;18.85;57.83;100609.60;125583;1093;103001;-79
2021/06/10 06:10:35;;;;;;;9.80;6.40;;;;;;;18.94;57.50;100613.61;124499;1091;115803;-81
2021/06/10 06:13:04;;;;;;;6.15;4.40;;;;;;;18.97;57.15;100608.91;124869;1092;103076;-79
2021/06/10 06:15:31;;;;;;;7.13;5.68;;;;;;;18.98;56.30;100607.96;124387;1093;115626;-77
2021/06/10 06:17:59;;;;;;;6.63;4.60;;;;;;;19.05;56.12;100608.47;124507;1092;103074;-80
2021/06/10 06:20:26;;;;;;;6.88;5.05;;;;;;;19.13;56.03;100605.33;124431;1092;103977;-78
2021/06/10 06:22:54;;;;;;;5.20;4.70;;;;;;;19.19;55.67;100611.23;124313;1093;114736;-79
2021/06/10 06:25:22;;;;;;;6.03;4.25;;;;;;;19.24;55.29;100608.25;124438;1093;102927;-77
2021/06/10 06:27:49;;;;;;;7.47;5.07;;;;;;;19.28;55.43;100606.24;124279;1093;115691;-77
2021/06/10 06:30:17;;;;;;;6.83;5.07;;;;;;;19.34;55.29;100600.45;124384;1093;102998;-77
2021/06/10 06:32:47;;;;;;;9.60;4.83;;;;;;;19.42;55.55;100602.70;124366;1093;116007;-77
2021/06/10 06:35:15;;;;;;;4.48;4.03;;;;;;;19.48;53.49;100605.91;124365;1092;103094;-79
2021/06/10 06:37:56;;;;;;;5.50;4.30;;;;;;;19.55;54.05;100599.19;124495;1093;103039;-77
2021/06/10 06:40:26;;;;;;;5.83;4.30;;;;;;;19.57;53.10;100601.79;124866;1092;114949;-79
2021/06/10 06:42:54;;;;;;;8.10;4.43;;;;;;;19.59;52.97;100605.25;124605;1093;102997;-78
2021/06/10 06:45:21;;;;;;;5.43;3.78;;;;;;;19.66;52.89;100605.74;124716;1092;114269;-80
2021/06/10 06:47:49;;;;;;;9.27;4.27;;;;;;;19.72;53.48;100611.64;124602;1093;103346;-79
2021/06/10 06:50:16;;;;;;;6.00;4.33;;;;;;;19.79;52.95;100604.05;124682;1092;103016;-78
2021/06/10 06:52:45;;;;;;;11.00;4.33;;;;;;;19.80;53.03;100588.70;124555;1093;114875;-81
2021/06/10 06:55:13;;;;;;;4.77;4.10;;;;;;;19.92;53.02;100608.72;124462;1093;103128;-80
2021/06/10 06:57:40;;;;;;;6.18;4.08;;;;;;;19.96;52.71;100603.02;124584;1092;115774;-81
2021/06/10 07:00:08;;;;;;;4.27;3.80;;;;;;;19.98;52.40;100603.80;124837;1093;103055;-79
2021/06/10 07:02:36;;;;;;;4.78;4.05;;;;;;;20.06;52.04;100603.33;125036;1092;102997;-79
2021/06/10 07:05:07;;;;;;;3.87;3.47;;;;;;;20.15;51.95;100604.56;124979;1092;114144;-79
2021/06/10 07:07:34;;;;;;;6.20;4.38;;;;;;;20.23;51.63;100601.38;125179;1093;103119;-80
2021/06/10 07:10:02;;;;;;;6.50;4.97;;;;;;;20.29;51.44;100601.00;124917;1092;114863;-80
2021/06/10 07:12:31;;;;;;;9.80;4.23;;;;;;;20.36;50.64;100595.07;124960;1092;103017;-81
2021/06/10 07:14:59;;;;;;;3.77;3.20;;;;;;;20.44;50.39;100601.84;124846;1093;115045;-81
2021/06/10 07:17:27;;;;;;;4.70;2.90;;;;;;;20.52;50.22;100600.36;125034;1092;103271;-80
2021/06/10 07:19:55;;;;;;;6.30;3.30;;;;;;;20.60;49.99;100599.02;125208;1091;103073;-82
2021/06/10 07:22:23;;;;;;;4.13;3.78;;;;;;;20.65;50.54;100600.44;125013;1093;115712;-82
2021/06/10 07:24:52;;;;;;;4.60;3.50;;;;;;;20.73;49.74;100605.39;125337;1093;103243;-80
2021/06/10 07:27:19;;;;;;;4.10;3.40;;;;;;;20.80;49.81;100606.70;125508;1092;115898;-81
2021/06/10 07:29:47;;;;;;;5.20;4.40;;;;;;;20.86;49.67;100602.75;125064;1092;103980;-83
2021/06/10 07:32:28;;;;;;;5.10;3.95;;;;;;;20.94;49.99;100607.63;124992;1095;103020;-80
2021/06/10 07:34:58;;;;;;;7.13;4.18;;;;;;;21.01;49.52;100600.85;124731;1095;113770;-79
2021/06/10 07:37:26;;;;;;;3.70;3.40;;;;;;;21.10;49.49;100605.66;124800;1096;103236;-81
2021/06/10 07:39:54;;;;;;;4.68;3.03;;;;;;;21.17;49.13;100601.55;124662;1095;114541;-82
2021/06/10 07:42:22;;;;;;;5.65;3.50;;;;;;;21.25;48.61;100609.16;124708;1096;103145;-83
2021/06/10 07:44:49;;;;;;;4.60;3.40;;;;;;;21.29;48.54;100601.70;124454;1095;115842;-78
2021/06/10 07:47:17;;;;;;;3.28;2.98;;;;;;;21.33;47.78;100598.66;124741;1096;103074;-79
2021/06/10 07:49:48;;;;;;;7.83;4.08;;;;;;;21.40;47.95;100599.11;124701;1097;104052;-78
2021/06/10 07:52:16;;;;;;;6.17;4.57;;;;;;;21.52;48.81;100600.96;124549;1096;116010;-78
2021/06/10 07:54:44;;;;;;;5.58;3.28;;;;;;;21.65;48.50;100602.88;124610;1096;103109;-78
2021/06/10 07:57:13;;;;;;;4.65;3.83;;;;;;;21.75;47.16;100601.23;124655;1095;115013;-79
2021/06/10 07:59:41;;;;;;;5.33;3.35;;;;;;;21.82;47.00;100601.67;126337;1096;103012;-80
2021/06/10 08:02:15;;;;;;;3.73;3.05;;;;;;;21.86;46.19;100595.94;124678;1095;103218;-82
2021/06/10 08:04:56;;;;;;;2.90;2.63;;;;;;;21.88;44.78;100595.83;124672;1094;116187;-78
2021/06/10 08:07:28;;;;;;;3.20;2.63;;;;;;;21.97;44.29;100592.45;125204;1096;102932;-78
2021/06/10 08:09:56;;;;;;;4.10;2.70;;;;;;;22.09;44.96;100596.14;124475;1093;116787;-77
2021/06/10 08:12:23;;;;;;;4.43;2.68;;;;;;;22.16;44.83;100599.28;124833;1093;103016;-80
2021/06/10 08:15:06;;;;;;;4.85;3.03;;;;;;;22.21;44.69;100592.53;124843;1093;114968;-80
2021/06/10 08:17:36;;;;;;;4.00;2.95;;;;;;;22.36;45.30;100600.58;125133;1091;103055;-78
2021/06/10 08:20:11;;;;;;;5.10;2.95;;;;;;;22.43;44.59;100599.17;125030;1093;103049;-80
2021/06/10 08:22:40;;;;;;;2.78;2.50;;;;;;;22.48;43.53;100604.25;125386;1092;116031;-79
2021/06/10 08:25:09;;;;;;;4.17;2.20;;;;;;;22.51;42.77;100607.61;125154;1093;102898;-78
2021/06/10 08:27:38;;;;;;;4.28;2.43;;;;;;;22.61;42.80;100606.94;125392;1091;115798;-79
2021/06/10 08:30:07;;;;;;;2.98;2.55;;;;;;;22.73;43.40;100600.59;125021;1093;103000;-78
2021/06/10 08:32:35;;;;;;;2.35;2.15;;;;;;;22.84;42.60;100607.94;126964;1093;102977;-78
2021/06/10 08:35:04;;;;;;;4.55;2.80;;;;;;;22.88;42.30;100604.89;124488;1093;114721;-78
2021/06/10 08:37:32;;;;;;;5.15;2.63;;;;;;;22.96;42.02;100603.44;124983;1093;103001;-77
2021/06/10 08:39:59;;;;;;;2.27;2.07;;;;;;;23.15;41.98;100600.21;125008;1092;114018;-79
2021/06/10 08:42:28;;;;;;;3.43;2.18;;;;;;;23.36;41.46;100600.42;124899;1093;102985;-79
2021/06/10 08:44:57;;;;;;;3.33;2.30;;;;;;;23.48;41.79;100587.73;125242;1093;115502;-80
2021/06/10 08:47:25;;;;;;;6.18;2.60;;;;;;;23.60;40.79;100597.64;124850;1092;103166;-78
2021/06/10 08:49:52;;;;;;;4.13;2.67;;;;;;;23.69;41.00;100587.91;124638;1093;103166;-78
2021/06/10 08:52:21;;;;;;;4.10;2.83;;;;;;;23.86;40.28;100589.30;124421;1092;114538;-80
2021/06/10 08:54:49;;;;;;;2.38;2.15;;;;;;;24.01;39.68;100590.81;124613;1093;102994;-77
2021/06/10 08:57:16;;;;;;;6.60;2.07;;;;;;;24.19;37.98;100590.31;124791;1091;114991;-78
2021/06/10 08:59:44;;;;;;;2.58;1.48;;;;;;;24.33;37.74;100598.23;124970;1092;102981;-81
2021/06/10 09:02:13;;;;;;;4.30;2.70;;;;;;;24.44;37.37;100601.95;125052;1093;103441;-80
2021/06/10 09:04:40;;;;;;;2.87;2.57;;;;;;;24.57;37.09;100596.38;125017;1093;115852;-82
2021/06/10 09:07:10;;;;;;;1.70;1.58;;;;;;;24.67;37.54;100598.23;125166;1093;103693;-86
2021/06/10 09:09:39;;;;;;;4.43;2.15;;;;;;;24.82;37.32;100600.69;125468;1091;116268;-79
2021/06/10 09:12:21;;;;;;;7.23;2.47;;;;;;;25.07;37.34;100598.61;124655;1096;102937;-82
2021/06/10 09:14:57;;;;;;;9.77;4.20;;;;;;;25.29;37.63;100586.75;124718;1096;114659;-84
2021/06/10 09:17:34;;;;;;;2.80;2.10;;;;;;;25.41;35.86;100595.78;125092;1093;103145;-83
2021/06/10 09:20:22;;;;;;;1.93;1.77;;;;;;;25.52;36.92;100593.86;125986;1093;103166;-81
2021/06/10 09:22:53;;;;;;;2.48;1.63;;;;;;;25.72;36.95;100596.69;124800;1093;114396;-82
2021/06/10 09:25:25;;;;;;;5.93;3.83;;;;;;;25.87;35.94;100580.83;125903;1093;103084;-78
2021/06/10 09:27:58;;;;;;;3.60;1.70;;;;;;;26.09;35.50;100582.56;124909;1093;114422;-80
2021/06/10 09:30:30;;;;;;;2.90;1.80;;;;;;;27.12;32.95;100583.25;125725;1092;102940;-87
2021/06/10 09:33:00;;;;;;;2.65;1.75;;;;;;;28.15;32.24;100585.42;125137;1093;114761;-79
2021/06/10 09:35:31;;;;;;;1.38;1.28;;;;;;;29.03;29.82;100590.44;124875;1092;103713;-81
2021/06/10 09:38:04;;;;;;;3.03;1.23;;;;;;;29.81;28.17;100591.61;125944;1093;103032;-81
2021/06/10 09:40:33;;;;;;;1.70;1.50;;;;;;;30.53;27.24;100590.49;125006;1093;116070;-79
2021/06/10 09:43:01;;;;;;;1.80;1.30;;;;;;;31.31;26.30;100589.27;125445;1091;102997;-80
2021/06/10 09:45:44;;;;;;;1.80;1.40;;;;;;;32.21;25.24;100582.82;125135;1092;115973;-83
2021/06/10 09:48:11;;;;;;;2.53;1.35;;;;;;;31.96;24.89;100596.66;127819;1093;100744;-78
2021/06/10 09:50:45;;;;;;;3.17;1.47;;;;;;;31.92;25.43;100592.50;127436;1093;100928;-86
2021/06/10 09:53:22;;;;;;;3.43;1.43;;;;;;;32.50;24.39;100595.95;124963;1093;115257;-78
2021/06/10 09:56:00;;;;;;;2.30;1.50;;;;;;;32.78;23.19;100584.47;124733;1093;102979;-79
2021/06/10 09:58:44;;;;;;;2.83;1.33;;;;;;;33.32;22.52;100582.73;124458;1094;114625;-80
2021/06/10 10:01:14;;;;;;;1.90;1.23;;;;;;;33.75;22.72;100587.67;125150;1096;103100;-78
2021/06/10 10:03:50;;;;;;;3.33;1.40;;;;;;;34.54;22.11;100587.16;126071;1095;115885;-79
2021/06/10 10:06:30;;;;;;;4.83;1.33;;;;;;;34.89;20.54;100581.00;124504;1094;103257;-79
2021/06/10 10:09:07;;;;;;;2.23;1.13;;;;;;;35.35;19.61;100580.64;125143;1094;114716;-78
2021/06/10 10:11:35;;;;;;;2.97;1.50;;;;;;;35.85;20.43;100580.62;125272;1096;103171;-79
2021/06/10 10:14:06;;;;;;;2.65;1.20;;;;;;;36.27;18.97;100572.31;124303;1096;103077;-82
2021/06/10 10:16:35;;;;;;;4.03;2.60;;;;;;;36.64;19.38;100584.03;124286;1095;114660;-79
2021/06/10 10:19:04;;;;;;;2.28;1.58;;;;;;;36.87;19.34;100572.62;124326;1095;103185;-79
2021/06/10 10:21:36;;;;;;;6.97;1.20;;;;;;;37.04;18.86;100572.20;124404;1096;116249;-79
2021/06/10 10:24:10;;;;;;;1.30;1.15;;;;;;;37.43;18.51;100570.55;125126;1095;103130;-79
2021/06/10 10:26:38;;;;;;;1.50;1.18;;;;;;;37.32;18.23;100583.16;124892;1095;103084;-80
2021/06/10 10:29:11;;;;;;;2.65;1.45;;;;;;;36.84;18.64;100577.72;124868;1095;114805;-88
2021/06/10 10:31:39;;;;;;;3.80;1.20;;;;;;;36.85;17.96;100573.89;125123;1094;103031;-77
2021/06/10 10:34:06;;;;;;;2.85;1.40;;;;;;;36.80;18.19;100567.02;124278;1095;116503;-78
2021/06/10 10:36:41;;;;;;;2.90;1.58;;;;;;;36.84;17.78;100573.02;124619;1093;103076;-77
2021/06/10 10:39:11;;;;;;;1.23;0.98;;;;;;;37.07;17.47;100561.55;125226;1093;114589;-81
2021/06/10 10:41:52;;;;;;;2.80;1.40;;;;;;;36.85;17.30;100563.63;124869;1093;103157;-78
2021/06/10 10:44:26;;;;;;;2.53;1.17;;;;;;;36.62;18.27;100563.98;124780;1093;102974;-77
2021/06/10 10:47:03;;;;;;;2.35;1.25;;;;;;;36.48;18.40;100563.93;124477;1093;115714;-78
2021/06/10 10:49:48;;;;;;;1.90;1.37;;;;;;;36.56;18.56;100564.80;124774;1092;103200;-78
2021/06/10 10:52:38;;;;;;;3.00;1.40;;;;;;;36.63;18.97;100557.37;125166;1093;114645;-80
2021/06/10 10:55:21;;;;;;;1.90;1.20;;;;;;;36.68;17.89;100568.67;124874;1093;103023;-83
2021/06/10 10:57:57;;;;;;;1.73;1.20;;;;;;;36.64;18.55;100559.05;125065;1092;115903;-77
2021/06/10 11:00:44;;;;;;;2.20;1.60;;;;;;;35.60;18.91;100558.02;125208;1091;103084;-79
2021/06/10 11:03:43;;;;;;;1.70;1.10;;;;;;;34.69;19.45;100561.38;125090;1092;116404;-79
2021/06/10 11:06:21;;;;;;;2.37;1.10;;;;;;;33.92;20.71;100563.53;124911;1093;103146;-83
2021/06/10 11:09:01;;;;;;;4.35;1.38;;;;;;;33.07;21.19;100559.95;124850;1092;102987;-79
2021/06/10 11:11:57;;;;;;;3.87;1.30;;;;;;;32.42;22.27;100562.08;125292;1092;115753;-80
2021/06/10 11:14:52;;;;;;;3.17;1.50;;;;;;;31.95;23.20;100552.73;124843;1093;103165;-78
2021/06/10 11:17:30;;;;;;;2.75;1.33;;;;;;;31.33;24.17;100545.94;124827;1093;114525;-78
2021/06/10 11:20:16;;;;;;;3.20;1.78;;;;;;;31.07;24.04;100546.11;124386;1095;103051;-77
2021/06/10 11:23:10;;;;;;;2.60;1.50;;;;;;;30.58;23.96;100544.13;124653;1096;114776;-81
2021/06/10 11:25:39;;;;;;;2.50;1.57;;;;;;;30.04;24.48;100547.99;124537;1093;103101;-77